sensor_id;sensor_type;location;lat;lon;timestamp;pressure;altitude;pressure_sealevel;temperature;humidity
64668;BME280;51077;42.716;23.344;2023-08-06T00:01:23;94289.81;;;22.53;61.09
64668;BME280;51077;42.716;23.344;2023-08-06T00:03:50;94270.25;;;22.53;60.95
64668;BME280;51077;42.716;23.344;2023-08-06T00:06:16;94231.22;;;22.55;61.17
64668;BME280;51077;42.716;23.344;2023-08-06T00:08:41;94248.09;;;22.57;60.82
64668;BME280;51077;42.716;23.344;2023-08-06T00:11:06;94283.00;;;22.56;60.91
64668;BME280;51077;42.716;23.344;2023-08-06T00:13:32;94277.28;;;22.54;61.19
64668;BME280;51077;42.716;23.344;2023-08-06T00:16:10;94283.72;;;22.57;61.24
64668;BME280;51077;42.716;23.344;2023-08-06T00:18:36;94285.91;;;22.58;61.60
64668;BME280;51077;42.716;23.344;2023-08-06T00:21:02;94262.94;;;22.60;61.28
64668;BME280;51077;42.716;23.344;2023-08-06T00:23:27;94244.81;;;22.61;61.29
64668;BME280;51077;42.716;23.344;2023-08-06T00:25:52;94256.72;;;22.62;61.51
64668;BME280;51077;42.716;23.344;2023-08-06T00:28:18;94266.56;;;22.63;61.20
64668;BME280;51077;42.716;23.344;2023-08-06T00:30:43;94274.94;;;22.63;61.61
64668;BME280;51077;42.716;23.344;2023-08-06T00:33:08;94265.09;;;22.62;61.66
64668;BME280;51077;42.716;23.344;2023-08-06T00:35:34;94255.25;;;22.61;61.52
64668;BME280;51077;42.716;23.344;2023-08-06T00:37:59;94244.16;;;22.63;61.39
64668;BME280;51077;42.716;23.344;2023-08-06T00:40:25;94244.28;;;22.65;61.40
64668;BME280;51077;42.716;23.344;2023-08-06T00:42:50;94235.28;;;22.66;61.74
64668;BME280;51077;42.716;23.344;2023-08-06T00:45:16;94219.94;;;22.67;61.56
64668;BME280;51077;42.716;23.344;2023-08-06T00:47:41;94225.53;;;22.67;61.61
64668;BME280;51077;42.716;23.344;2023-08-06T00:50:07;94241.59;;;22.67;61.43
64668;BME280;51077;42.716;23.344;2023-08-06T00:52:34;94234.66;;;22.68;61.58
64668;BME280;51077;42.716;23.344;2023-08-06T00:54:59;94232.47;;;22.66;61.67
64668;BME280;51077;42.716;23.344;2023-08-06T00:57:25;94219.84;;;22.65;61.85
64668;BME280;51077;42.716;23.344;2023-08-06T00:59:52;94224.00;;;22.64;61.91
64668;BME280;51077;42.716;23.344;2023-08-06T01:02:18;94221.19;;;22.64;61.84
64668;BME280;51077;42.716;23.344;2023-08-06T01:04:44;94214.13;;;22.63;61.71
64668;BME280;51077;42.716;23.344;2023-08-06T01:07:41;94207.81;;;22.63;62.10
64668;BME280;51077;42.716;23.344;2023-08-06T01:15:29;94190.44;;;22.64;62.17
64668;BME280;51077;42.716;23.344;2023-08-06T01:17:57;94194.69;;;22.65;61.93
64668;BME280;51077;42.716;23.344;2023-08-06T01:20:30;94199.66;;;22.67;62.04
64668;BME280;51077;42.716;23.344;2023-08-06T01:22:55;94205.97;;;22.67;62.26
64668;BME280;51077;42.716;23.344;2023-08-06T01:25:21;94194.16;;;22.69;62.04
64668;BME280;51077;42.716;23.344;2023-08-06T01:27:55;94191.47;;;22.71;62.03
64668;BME280;51077;42.716;23.344;2023-08-06T01:30:28;94181.72;;;22.72;62.16
64668;BME280;51077;42.716;23.344;2023-08-06T01:33:02;94181.84;;;22.74;62.20
64668;BME280;51077;42.716;23.344;2023-08-06T01:35:29;94173.53;;;22.76;62.29
64668;BME280;51077;42.716;23.344;2023-08-06T01:37:55;94170.75;;;22.76;62.42
64668;BME280;51077;42.716;23.344;2023-08-06T01:40:21;94172.22;;;22.77;62.23
64668;BME280;51077;42.716;23.344;2023-08-06T01:42:47;94168.56;;;22.74;62.34
64668;BME280;51077;42.716;23.344;2023-08-06T01:45:12;94169.81;;;22.71;62.28
64668;BME280;51077;42.716;23.344;2023-08-06T01:47:38;94179.56;;;22.70;62.30
64668;BME280;51077;42.716;23.344;2023-08-06T01:50:03;94169.00;;;22.69;62.24
64668;BME280;51077;42.716;23.344;2023-08-06T01:52:29;94160.59;;;22.69;62.22
64668;BME280;51077;42.716;23.344;2023-08-06T01:54:55;94164.00;;;22.67;62.57
64668;BME280;51077;42.716;23.344;2023-08-06T01:57:20;94175.19;;;22.67;62.50
64668;BME280;51077;42.716;23.344;2023-08-06T01:59:46;94166.81;;;22.67;62.67
64668;BME280;51077;42.716;23.344;2023-08-06T02:02:12;94172.41;;;22.67;62.74
64668;BME280;51077;42.716;23.344;2023-08-06T02:04:37;94159.75;;;22.66;62.70
64668;BME280;51077;42.716;23.344;2023-08-06T02:07:02;94154.78;;;22.65;62.86
64668;BME280;51077;42.716;23.344;2023-08-06T02:09:28;94147.00;;;22.63;62.65
64668;BME280;51077;42.716;23.344;2023-08-06T02:11:53;94151.16;;;22.62;62.86
64668;BME280;51077;42.716;23.344;2023-08-06T02:14:19;94154.59;;;22.61;62.80
64668;BME280;51077;42.716;23.344;2023-08-06T02:16:44;94155.31;;;22.61;62.76
64668;BME280;51077;42.716;23.344;2023-08-06T02:19:09;94145.56;;;22.62;62.73
64668;BME280;51077;42.716;23.344;2023-08-06T02:21:35;94158.81;;;22.62;62.93
64668;BME280;51077;42.716;23.344;2023-08-06T02:24:00;94162.47;;;22.64;62.79
64668;BME280;51077;42.716;23.344;2023-08-06T02:26:26;94174.38;;;22.65;62.82
64668;BME280;51077;42.716;23.344;2023-08-06T02:28:51;94197.34;;;22.63;63.04
64668;BME280;51077;42.716;23.344;2023-08-06T02:31:16;94197.25;;;22.61;63.42
64668;BME280;51077;42.716;23.344;2023-08-06T02:33:42;94188.66;;;22.57;63.33
64668;BME280;51077;42.716;23.344;2023-08-06T02:36:07;94171.03;;;22.54;64.08
64668;BME280;51077;42.716;23.344;2023-08-06T02:38:33;94171.56;;;22.51;65.45
64668;BME280;51077;42.716;23.344;2023-08-06T02:40:58;94178.97;;;22.46;65.99
64668;BME280;51077;42.716;23.344;2023-08-06T02:43:24;94198.47;;;22.44;67.04
64668;BME280;51077;42.716;23.344;2023-08-06T02:45:49;94224.84;;;22.41;67.83
64668;BME280;51077;42.716;23.344;2023-08-06T02:48:15;94230.94;;;22.38;68.71
64668;BME280;51077;42.716;23.344;2023-08-06T02:50:41;94210.56;;;22.35;69.59
64668;BME280;51077;42.716;23.344;2023-08-06T02:53:09;94199.88;;;22.31;70.33
64668;BME280;51077;42.716;23.344;2023-08-06T02:55:35;94191.28;;;22.27;70.50
64668;BME280;51077;42.716;23.344;2023-08-06T02:58:01;94182.06;;;22.25;71.02
64668;BME280;51077;42.716;23.344;2023-08-06T03:00:27;94159.59;;;22.23;70.50
64668;BME280;51077;42.716;23.344;2023-08-06T03:02:53;94165.16;;;22.23;71.24
64668;BME280;51077;42.716;23.344;2023-08-06T03:05:18;94151.09;;;22.21;71.52
64668;BME280;51077;42.716;23.344;2023-08-06T03:07:44;94140.00;;;22.23;71.66
64668;BME280;51077;42.716;23.344;2023-08-06T03:10:09;94165.81;;;22.21;71.47
64668;BME280;51077;42.716;23.344;2023-08-06T03:12:35;94160.81;;;22.20;71.01
64668;BME280;51077;42.716;23.344;2023-08-06T03:15:00;94118.88;;;22.20;70.48
64668;BME280;51077;42.716;23.344;2023-08-06T03:17:26;94096.44;;;22.18;70.73
64668;BME280;51077;42.716;23.344;2023-08-06T03:19:51;94108.34;;;22.18;70.74
64668;BME280;51077;42.716;23.344;2023-08-06T03:22:17;94145.16;;;22.15;70.44
64668;BME280;51077;42.716;23.344;2023-08-06T03:24:42;94103.16;;;22.13;70.54
64668;BME280;51077;42.716;23.344;2023-08-06T03:27:07;94090.38;;;22.09;70.54
64668;BME280;51077;42.716;23.344;2023-08-06T03:29:33;94113.88;;;22.04;70.04
64668;BME280;51077;42.716;23.344;2023-08-06T03:31:58;94136.22;;;22.04;70.44
64668;BME280;51077;42.716;23.344;2023-08-06T03:34:23;94178.00;;;22.02;70.15
64668;BME280;51077;42.716;23.344;2023-08-06T03:36:49;94204.91;;;21.96;70.18
64668;BME280;51077;42.716;23.344;2023-08-06T03:39:14;94212.09;;;21.87;70.04
64668;BME280;51077;42.716;23.344;2023-08-06T03:41:40;94221.47;;;21.80;70.21
64668;BME280;51077;42.716;23.344;2023-08-06T03:44:05;94210.56;;;21.72;69.95
64668;BME280;51077;42.716;23.344;2023-08-06T03:46:31;94183.75;;;21.67;70.07
64668;BME280;51077;42.716;23.344;2023-08-06T03:49:00;94184.47;;;21.68;69.84
64668;BME280;51077;42.716;23.344;2023-08-06T03:51:25;94201.22;;;21.68;69.84
64668;BME280;51077;42.716;23.344;2023-08-06T03:53:51;94190.19;;;21.70;69.55
64668;BME280;51077;42.716;23.344;2023-08-06T03:56:16;94176.31;;;21.72;69.66
64668;BME280;51077;42.716;23.344;2023-08-06T03:58:42;94187.63;;;21.74;69.49
64668;BME280;51077;42.716;23.344;2023-08-06T04:01:07;94196.81;;;21.76;69.58
64668;BME280;51077;42.716;23.344;2023-08-06T04:03:33;94181.78;;;21.81;70.09
64668;BME280;51077;42.716;23.344;2023-08-06T04:05:58;94181.16;;;21.83;70.04
64668;BME280;51077;42.716;23.344;2023-08-06T04:08:23;94185.28;;;21.82;70.63
64668;BME280;51077;42.716;23.344;2023-08-06T04:10:51;94196.22;;;21.78;70.57
64668;BME280;51077;42.716;23.344;2023-08-06T04:13:16;94207.19;;;21.74;71.08
64668;BME280;51077;42.716;23.344;2023-08-06T04:15:42;94217.88;;;21.66;71.06
64668;BME280;51077;42.716;23.344;2023-08-06T04:18:07;94218.75;;;21.56;71.60
64668;BME280;51077;42.716;23.344;2023-08-06T04:20:32;94209.19;;;21.48;71.43
64668;BME280;51077;42.716;23.344;2023-08-06T04:22:58;94205.44;;;21.43;71.26
64668;BME280;51077;42.716;23.344;2023-08-06T04:25:23;94205.44;;;21.43;71.65
64668;BME280;51077;42.716;23.344;2023-08-06T04:27:49;94200.09;;;21.47;71.55
64668;BME280;51077;42.716;23.344;2023-08-06T04:30:14;94179.53;;;21.54;71.12
64668;BME280;51077;42.716;23.344;2023-08-06T04:32:40;94185.50;;;21.61;70.82
64668;BME280;51077;42.716;23.344;2023-08-06T04:35:06;94171.75;;;21.65;70.76
64668;BME280;51077;42.716;23.344;2023-08-06T04:37:32;94171.47;;;21.72;70.52
64668;BME280;51077;42.716;23.344;2023-08-06T04:39:57;94168.41;;;21.80;70.44
64668;BME280;51077;42.716;23.344;2023-08-06T04:42:23;94166.69;;;21.87;69.86
64668;BME280;51077;42.716;23.344;2023-08-06T04:44:48;94162.16;;;21.93;69.95
64668;BME280;51077;42.716;23.344;2023-08-06T04:47:13;94162.38;;;21.97;69.81
64668;BME280;51077;42.716;23.344;2023-08-06T04:49:39;94151.31;;;21.99;69.67
64668;BME280;51077;42.716;23.344;2023-08-06T04:52:05;94132.69;;;22.04;69.63
64668;BME280;51077;42.716;23.344;2023-08-06T04:54:31;94127.34;;;22.08;69.73
64668;BME280;51077;42.716;23.344;2023-08-06T04:56:56;94119.91;;;22.13;69.32
64668;BME280;51077;42.716;23.344;2023-08-06T04:59:22;94110.41;;;22.18;69.07
64668;BME280;51077;42.716;23.344;2023-08-06T05:01:47;94119.00;;;22.22;69.21
64668;BME280;51077;42.716;23.344;2023-08-06T05:04:12;94114.44;;;22.28;68.83
64668;BME280;51077;42.716;23.344;2023-08-06T05:06:38;94117.47;;;22.32;68.70
64668;BME280;51077;42.716;23.344;2023-08-06T05:09:04;94117.16;;;22.40;68.49
64668;BME280;51077;42.716;23.344;2023-08-06T05:11:30;94130.13;;;22.47;68.24
64668;BME280;51077;42.716;23.344;2023-08-06T05:13:55;94128.56;;;22.58;67.82
64668;BME280;51077;42.716;23.344;2023-08-06T05:16:20;94130.44;;;22.67;67.68
64668;BME280;51077;42.716;23.344;2023-08-06T05:18:46;94137.38;;;22.80;67.51
64668;BME280;51077;42.716;23.344;2023-08-06T05:21:11;94135.16;;;22.90;67.05
64668;BME280;51077;42.716;23.344;2023-08-06T05:23:37;94143.41;;;23.02;66.52
64668;BME280;51077;42.716;23.344;2023-08-06T05:26:02;94143.19;;;23.12;66.39
64668;BME280;51077;42.716;23.344;2023-08-06T05:28:27;94136.69;;;23.21;66.45
64668;BME280;51077;42.716;23.344;2023-08-06T05:30:53;94142.66;;;23.29;66.05
64668;BME280;51077;42.716;23.344;2023-08-06T05:33:18;94149.28;;;23.36;65.95
64668;BME280;51077;42.716;23.344;2023-08-06T05:35:44;94142.72;;;23.45;65.55
64668;BME280;51077;42.716;23.344;2023-08-06T05:38:09;94128.59;;;23.56;65.26
64668;BME280;51077;42.716;23.344;2023-08-06T05:40:35;94119.47;;;23.70;64.88
64668;BME280;51077;42.716;23.344;2023-08-06T05:43:00;94122.84;;;23.82;64.24
64668;BME280;51077;42.716;23.344;2023-08-06T05:45:25;94116.97;;;23.92;64.35
64668;BME280;51077;42.716;23.344;2023-08-06T05:47:51;94118.16;;;24.02;63.73
64668;BME280;51077;42.716;23.344;2023-08-06T05:50:19;94120.09;;;24.14;63.39
64668;BME280;51077;42.716;23.344;2023-08-06T05:52:44;94121.97;;;24.25;63.16
64668;BME280;51077;42.716;23.344;2023-08-06T05:55:09;94129.63;;;24.38;62.76
64668;BME280;51077;42.716;23.344;2023-08-06T05:57:35;94133.78;;;24.53;62.23
64668;BME280;51077;42.716;23.344;2023-08-06T06:00:01;94137.22;;;24.67;61.84
64668;BME280;51077;42.716;23.344;2023-08-06T06:02:26;94140.66;;;24.81;61.69
64668;BME280;51077;42.716;23.344;2023-08-06T06:04:52;94140.38;;;24.91;61.50
64668;BME280;51077;42.716;23.344;2023-08-06T06:07:17;94148.41;;;24.99;61.03
64668;BME280;51077;42.716;23.344;2023-08-06T06:09:42;94158.75;;;25.10;60.68
64668;BME280;51077;42.716;23.344;2023-08-06T06:12:08;94152.94;;;25.22;60.31
64668;BME280;51077;42.716;23.344;2023-08-06T06:14:33;94158.16;;;25.29;60.05
64668;BME280;51077;42.716;23.344;2023-08-06T06:16:59;94162.03;;;25.38;59.55
64668;BME280;51077;42.716;23.344;2023-08-06T06:19:25;94170.00;;;25.44;59.31
64668;BME280;51077;42.716;23.344;2023-08-06T06:21:51;94170.94;;;25.50;58.94
64668;BME280;51077;42.716;23.344;2023-08-06T06:24:16;94179.53;;;25.54;58.18
64668;BME280;51077;42.716;23.344;2023-08-06T06:26:41;94180.44;;;25.59;58.23
64668;BME280;51077;42.716;23.344;2023-08-06T06:29:07;94182.78;;;25.65;57.80
64668;BME280;51077;42.716;23.344;2023-08-06T06:31:32;94185.03;;;25.68;56.92
64668;BME280;51077;42.716;23.344;2023-08-06T06:33:58;94189.47;;;25.73;56.63
64668;BME280;51077;42.716;23.344;2023-08-06T06:36:23;94203.06;;;25.79;55.93
64668;BME280;51077;42.716;23.344;2023-08-06T06:38:49;94199.69;;;25.83;55.73
64668;BME280;51077;42.716;23.344;2023-08-06T06:41:14;94207.72;;;25.90;55.26
64668;BME280;51077;42.716;23.344;2023-08-06T06:43:40;94207.31;;;25.98;54.83
64668;BME280;51077;42.716;23.344;2023-08-06T06:46:05;94202.84;;;26.09;54.50
64668;BME280;51077;42.716;23.344;2023-08-06T06:48:33;94209.59;;;26.19;53.64
64668;BME280;51077;42.716;23.344;2023-08-06T06:50:58;94213.59;;;26.32;53.22
64668;BME280;51077;42.716;23.344;2023-08-06T06:53:24;94222.69;;;26.48;52.73
64668;BME280;51077;42.716;23.344;2023-08-06T06:56:05;94218.25;;;26.61;51.58
64668;BME280;51077;42.716;23.344;2023-08-06T06:58:31;94225.78;;;26.74;51.36
64668;BME280;51077;42.716;23.344;2023-08-06T07:00:56;94226.97;;;26.87;50.04
64668;BME280;51077;42.716;23.344;2023-08-06T07:03:21;94232.25;;;26.97;49.78
64668;BME280;51077;42.716;23.344;2023-08-06T07:05:47;94235.59;;;27.11;49.16
64668;BME280;51077;42.716;23.344;2023-08-06T07:08:12;94237.56;;;27.26;49.16
64668;BME280;51077;42.716;23.344;2023-08-06T07:10:40;94243.78;;;27.43;48.64
64668;BME280;51077;42.716;23.344;2023-08-06T07:13:06;94247.94;;;27.62;48.13
64668;BME280;51077;42.716;23.344;2023-08-06T07:15:31;94241.44;;;27.77;47.74
64668;BME280;51077;42.716;23.344;2023-08-06T07:17:57;94240.53;;;27.92;47.08
64668;BME280;51077;42.716;23.344;2023-08-06T07:20:22;94242.97;;;28.02;46.77
64668;BME280;51077;42.716;23.344;2023-08-06T07:22:47;94243.38;;;28.14;45.96
64668;BME280;51077;42.716;23.344;2023-08-06T07:25:13;94248.56;;;28.22;45.73
64668;BME280;51077;42.716;23.344;2023-08-06T07:27:38;94236.94;;;28.34;45.42
64668;BME280;51077;42.716;23.344;2023-08-06T07:30:04;94240.09;;;28.44;45.40
64668;BME280;51077;42.716;23.344;2023-08-06T07:32:30;94247.56;;;28.57;45.11
64668;BME280;51077;42.716;23.344;2023-08-06T07:34:56;94249.19;;;28.64;45.06
64668;BME280;51077;42.716;23.344;2023-08-06T07:37:25;94244.50;;;28.73;44.49
64668;BME280;51077;42.716;23.344;2023-08-06T07:39:50;94242.03;;;28.85;44.31
64668;BME280;51077;42.716;23.344;2023-08-06T07:42:15;94243.69;;;28.92;44.00
64668;BME280;51077;42.716;23.344;2023-08-06T07:44:41;94234.75;;;29.00;43.73
64668;BME280;51077;42.716;23.344;2023-08-06T07:47:06;94249.31;;;29.16;43.98
64668;BME280;51077;42.716;23.344;2023-08-06T07:49:32;94245.53;;;29.32;43.39
64668;BME280;51077;42.716;23.344;2023-08-06T07:51:57;94248.75;;;29.46;42.97
64668;BME280;51077;42.716;23.344;2023-08-06T07:54:23;94244.28;;;29.63;42.48
64668;BME280;51077;42.716;23.344;2023-08-06T07:56:49;94242.59;;;29.79;41.55
64668;BME280;51077;42.716;23.344;2023-08-06T07:59:15;94235.47;;;30.04;41.28
64668;BME280;51077;42.716;23.344;2023-08-06T08:01:40;94235.81;;;30.19;40.82
64668;BME280;51077;42.716;23.344;2023-08-06T08:04:05;94237.97;;;30.20;40.53
64668;BME280;51077;42.716;23.344;2023-08-06T08:06:31;94236.38;;;30.13;39.69
64668;BME280;51077;42.716;23.344;2023-08-06T08:08:56;94241.38;;;30.15;40.09
64668;BME280;51077;42.716;23.344;2023-08-06T08:11:22;94233.38;;;30.07;39.71
64668;BME280;51077;42.716;23.344;2023-08-06T08:13:47;94235.59;;;30.11;40.23
64668;BME280;51077;42.716;23.344;2023-08-06T08:16:13;94231.78;;;30.28;39.18
64668;BME280;51077;42.716;23.344;2023-08-06T08:18:38;94230.50;;;30.33;39.50
64668;BME280;51077;42.716;23.344;2023-08-06T08:21:03;94230.06;;;30.45;39.90
64668;BME280;51077;42.716;23.344;2023-08-06T08:23:29;94236.16;;;30.63;38.44
64668;BME280;51077;42.716;23.344;2023-08-06T08:25:56;94229.00;;;30.60;38.49
64668;BME280;51077;42.716;23.344;2023-08-06T08:28:21;94240.41;;;30.64;39.11
64668;BME280;51077;42.716;23.344;2023-08-06T08:30:47;94235.06;;;30.76;38.61
64668;BME280;51077;42.716;23.344;2023-08-06T08:33:13;94235.69;;;30.73;38.89
64668;BME280;51077;42.716;23.344;2023-08-06T08:35:38;94226.06;;;30.86;38.61
64668;BME280;51077;42.716;23.344;2023-08-06T08:38:03;94231.38;;;31.04;37.74
64668;BME280;51077;42.716;23.344;2023-08-06T08:40:32;94223.81;;;31.15;37.71
64668;BME280;51077;42.716;23.344;2023-08-06T08:42:58;94230.47;;;31.27;37.39
64668;BME280;51077;42.716;23.344;2023-08-06T08:45:26;94227.28;;;31.45;37.45
64668;BME280;51077;42.716;23.344;2023-08-06T08:47:54;94229.47;;;31.49;36.65
64668;BME280;51077;42.716;23.344;2023-08-06T08:50:19;94226.00;;;31.52;36.85
64668;BME280;51077;42.716;23.344;2023-08-06T08:52:45;94234.06;;;31.66;36.42
64668;BME280;51077;42.716;23.344;2023-08-06T08:55:12;94214.38;;;31.76;36.06
64668;BME280;51077;42.716;23.344;2023-08-06T08:57:39;94221.19;;;31.99;36.16
64668;BME280;51077;42.716;23.344;2023-08-06T09:00:05;94215.66;;;32.08;35.53
64668;BME280;51077;42.716;23.344;2023-08-06T09:02:32;94212.44;;;32.29;34.85
64668;BME280;51077;42.716;23.344;2023-08-06T09:04:58;94212.59;;;32.38;35.26
64668;BME280;51077;42.716;23.344;2023-08-06T09:07:31;94211.44;;;32.53;34.87
64668;BME280;51077;42.716;23.344;2023-08-06T09:09:58;94201.09;;;32.78;34.80
64668;BME280;51077;42.716;23.344;2023-08-06T09:12:26;94205.03;;;33.03;34.93
64668;BME280;51077;42.716;23.344;2023-08-06T09:14:52;94196.72;;;33.21;34.16
64668;BME280;51077;42.716;23.344;2023-08-06T09:17:17;94188.31;;;33.34;34.11
64668;BME280;51077;42.716;23.344;2023-08-06T09:19:45;94190.72;;;33.54;33.68
64668;BME280;51077;42.716;23.344;2023-08-06T09:22:13;94191.53;;;33.62;32.83
64668;BME280;51077;42.716;23.344;2023-08-06T09:24:43;94188.06;;;33.72;32.42
64668;BME280;51077;42.716;23.344;2023-08-06T09:27:13;94186.81;;;33.93;32.79
64668;BME280;51077;42.716;23.344;2023-08-06T09:29:44;94178.38;;;34.01;32.42
64668;BME280;51077;42.716;23.344;2023-08-06T09:32:11;94179.25;;;34.20;32.56
64668;BME280;51077;42.716;23.344;2023-08-06T09:34:42;94181.47;;;34.32;31.80
64668;BME280;51077;42.716;23.344;2023-08-06T09:37:09;94161.63;;;34.44;31.12
64668;BME280;51077;42.716;23.344;2023-08-06T09:39:36;94167.47;;;34.69;30.55
64668;BME280;51077;42.716;23.344;2023-08-06T09:42:02;94166.84;;;34.87;30.51
64668;BME280;51077;42.716;23.344;2023-08-06T09:44:30;94167.69;;;35.06;29.71
64668;BME280;51077;42.716;23.344;2023-08-06T09:46:58;94167.06;;;35.25;29.20
64668;BME280;51077;42.716;23.344;2023-08-06T09:49:48;94171.38;;;35.37;29.13
64668;BME280;51077;42.716;23.344;2023-08-06T09:52:13;94172.81;;;35.40;29.25
64668;BME280;51077;42.716;23.344;2023-08-06T09:54:43;94161.50;;;35.77;28.46
64668;BME280;51077;42.716;23.344;2023-08-06T09:57:09;94175.78;;;35.85;28.17
64668;BME280;51077;42.716;23.344;2023-08-06T09:59:38;94169.34;;;35.76;28.01
64668;BME280;51077;42.716;23.344;2023-08-06T10:02:12;94179.28;;;35.53;28.00
64668;BME280;51077;42.716;23.344;2023-08-06T10:04:38;94174.06;;;35.00;28.62
64668;BME280;51077;42.716;23.344;2023-08-06T10:07:04;94168.97;;;34.80;29.53
64668;BME280;51077;42.716;23.344;2023-08-06T10:09:30;94175.22;;;34.52;29.48
64668;BME280;51077;42.716;23.344;2023-08-06T10:11:56;94176.44;;;34.24;29.51
64668;BME280;51077;42.716;23.344;2023-08-06T10:14:26;94188.25;;;33.94;29.81
64668;BME280;51077;42.716;23.344;2023-08-06T10:16:54;94190.06;;;33.59;29.83
64668;BME280;51077;42.716;23.344;2023-08-06T10:19:22;94180.47;;;33.30;30.65
64668;BME280;51077;42.716;23.344;2023-08-06T10:22:08;94178.38;;;33.35;30.46
64668;BME280;51077;42.716;23.344;2023-08-06T10:24:52;94175.31;;;33.81;30.41
64668;BME280;51077;42.716;23.344;2023-08-06T10:27:32;94171.72;;;33.76;30.14
64668;BME280;51077;42.716;23.344;2023-08-06T10:30:31;94176.47;;;33.51;30.53
64668;BME280;51077;42.716;23.344;2023-08-06T10:32:58;94176.28;;;33.35;30.69
64668;BME280;51077;42.716;23.344;2023-08-06T10:35:46;94185.22;;;33.09;31.52
64668;BME280;51077;42.716;23.344;2023-08-06T10:38:17;94187.19;;;32.96;31.36
64668;BME280;51077;42.716;23.344;2023-08-06T10:43:36;94190.41;;;33.27;31.55
64668;BME280;51077;42.716;23.344;2023-08-06T10:46:11;94196.59;;;33.74;30.45
64668;BME280;51077;42.716;23.344;2023-08-06T10:48:40;94202.28;;;33.74;30.70
64668;BME280;51077;42.716;23.344;2023-08-06T10:51:13;94206.28;;;33.46;30.72
64668;BME280;51077;42.716;23.344;2023-08-06T10:53:48;94215.84;;;33.15;30.83
64668;BME280;51077;42.716;23.344;2023-08-06T10:56:20;94212.56;;;32.84;31.43
64668;BME280;51077;42.716;23.344;2023-08-06T10:58:50;94214.94;;;32.51;31.97
64668;BME280;51077;42.716;23.344;2023-08-06T11:01:17;94216.69;;;32.28;32.30
64668;BME280;51077;42.716;23.344;2023-08-06T11:03:45;94221.50;;;32.18;32.63
64668;BME280;51077;42.716;23.344;2023-08-06T11:06:11;94218.13;;;32.27;32.00
64668;BME280;51077;42.716;23.344;2023-08-06T11:08:48;94222.63;;;32.43;32.06
64668;BME280;51077;42.716;23.344;2023-08-06T11:11:15;94218.47;;;32.50;31.67
64668;BME280;51077;42.716;23.344;2023-08-06T11:16:07;94228.84;;;32.33;31.98
64668;BME280;51077;42.716;23.344;2023-08-06T11:18:33;94247.06;;;32.18;32.71
64668;BME280;51077;42.716;23.344;2023-08-06T11:21:00;94239.75;;;32.05;33.50
64668;BME280;51077;42.716;23.344;2023-08-06T11:23:29;94244.34;;;31.84;34.39
64668;BME280;51077;42.716;23.344;2023-08-06T11:25:57;94251.72;;;31.63;34.74
64668;BME280;51077;42.716;23.344;2023-08-06T11:28:24;94249.88;;;31.41;35.37
64668;BME280;51077;42.716;23.344;2023-08-06T11:30:50;94251.63;;;31.22;35.99
64668;BME280;51077;42.716;23.344;2023-08-06T11:33:25;94246.94;;;31.03;35.96
64668;BME280;51077;42.716;23.344;2023-08-06T11:35:51;94236.75;;;30.90;36.56
64668;BME280;51077;42.716;23.344;2023-08-06T11:38:17;94233.31;;;30.95;36.80
64668;BME280;51077;42.716;23.344;2023-08-06T11:40:47;94231.81;;;30.90;37.00
64668;BME280;51077;42.716;23.344;2023-08-06T11:43:13;94229.16;;;30.98;36.37
64668;BME280;51077;42.716;23.344;2023-08-06T11:45:39;94225.47;;;30.92;32.57
64668;BME280;51077;42.716;23.344;2023-08-06T11:48:05;94216.25;;;30.91;30.44
64668;BME280;51077;42.716;23.344;2023-08-06T11:50:36;94217.09;;;31.32;30.07
64668;BME280;51077;42.716;23.344;2023-08-06T11:53:02;94209.97;;;32.08;31.95
64668;BME280;51077;42.716;23.344;2023-08-06T11:55:28;94214.16;;;32.95;30.06
64668;BME280;51077;42.716;23.344;2023-08-06T11:57:54;94202.09;;;33.56;29.60
64668;BME280;51077;42.716;23.344;2023-08-06T12:00:22;94208.34;;;34.09;28.90
64668;BME280;51077;42.716;23.344;2023-08-06T12:02:49;94203.63;;;34.40;28.77
64668;BME280;51077;42.716;23.344;2023-08-06T12:05:33;94196.72;;;34.73;28.17
64668;BME280;51077;42.716;23.344;2023-08-06T12:08:00;94200.47;;;35.00;28.10
64668;BME280;51077;42.716;23.344;2023-08-06T12:10:28;94203.41;;;35.19;27.80
64668;BME280;51077;42.716;23.344;2023-08-06T12:12:54;94203.50;;;35.41;27.39
64668;BME280;51077;42.716;23.344;2023-08-06T12:15:20;94205.00;;;35.61;26.88
64668;BME280;51077;42.716;23.344;2023-08-06T12:17:46;94199.19;;;35.36;26.83
64668;BME280;51077;42.716;23.344;2023-08-06T12:20:12;94193.97;;;34.96;27.40
64668;BME280;51077;42.716;23.344;2023-08-06T12:22:38;94198.72;;;34.50;27.77
64668;BME280;51077;42.716;23.344;2023-08-06T12:25:07;94202.63;;;34.09;27.91
64668;BME280;51077;42.716;23.344;2023-08-06T12:27:36;94204.41;;;33.71;28.70
64668;BME280;51077;42.716;23.344;2023-08-06T12:30:02;94198.28;;;33.33;29.02
64668;BME280;51077;42.716;23.344;2023-08-06T12:32:28;94191.69;;;33.16;29.14
64668;BME280;51077;42.716;23.344;2023-08-06T12:34:54;94189.00;;;33.30;29.53
64668;BME280;51077;42.716;23.344;2023-08-06T12:37:19;94181.97;;;33.37;29.78
64668;BME280;51077;42.716;23.344;2023-08-06T12:39:45;94187.47;;;33.19;29.86
64668;BME280;51077;42.716;23.344;2023-08-06T12:42:10;94206.50;;;33.06;29.31
64668;BME280;51077;42.716;23.344;2023-08-06T12:44:36;94188.31;;;32.77;30.11
64668;BME280;51077;42.716;23.344;2023-08-06T12:47:01;94188.00;;;32.55;30.38
64668;BME280;51077;42.716;23.344;2023-08-06T12:49:27;94189.81;;;32.34;30.90
64668;BME280;51077;42.716;23.344;2023-08-06T12:51:54;94185.91;;;32.13;30.85
64668;BME280;51077;42.716;23.344;2023-08-06T12:54:20;94186.34;;;31.95;31.16
64668;BME280;51077;42.716;23.344;2023-08-06T12:56:47;94178.91;;;31.75;31.55
64668;BME280;51077;42.716;23.344;2023-08-06T12:59:14;94190.66;;;31.58;31.67